Strona główna
METAR-TAF:

METAR-TAF

Lotnisko :

Lima, Ohio, Stany Zjednoczone

Szerokość geograficzna: 40-42-29N, Długość geograficzna: 084-01-17W, wysokość: 297 m

Aktualna obserwacja pogody

Raport powstał 23 minut temu, godzina 21:53 UTC
Wiatr 8 kt od południowo-południowy zachód
Temperatura 9°C
Wilgotność 71%
Ciśnienie 1015 hPa
Widzialność: 16.1 km
Mało chmury na wysokości 3100 ft

METAR: KAOH 082153Z AUTO 20008KT 10SM FEW031 09/04 A2998 RMK AO2 SLP160 T00940044

czas: 17:16 (22:16 UTC)


TAF: brakujący

Obserwacja i prognoza pogody dla ponad 4000 lotnisk (raport METAR i TAF).

Dostępne stacje oznaczono żółtymi i czerwonymi punktami na mapie.

Najedź kursorem aby zobaczyć nazwę stacji.

Kliknij aby zobaczyć obserwacje i prognozy pogody.

Aby zmienić mapę: kliknij na zielony przycisk z czarnym krzyżykiem, aby powiększyć; na zielony przycisk z myślnikiem, aby pomniejszyć; na zielone strzałki, aby przejść do map sąsiednich.


METAR-TAF: